Other Surface Observations
Issued by NWS Missoula, MT

Home | Current Version | Previous Version | Text Only | Print | Product List | Glossary On
Versions: 1 2 3 4 5 6 7 8 9 10 11 12 13 14 15 16 17 18 19 20 21 22 23 24 25 26 27 28 29 30 31 32 33 34 35 36 37 38 39 40 41 42 43 44 45 46 47 48 49 50
000
SXUS55 KMSO 061804
OSOMSO
MONTANA AWOS SUMMARY
NATIONAL WEATHER SERVICE MISSOULA MT
1203 PM MDT WED MAY 6 2015

Montana AWOS Reports

ROUNDUP     |KRPX 061755Z AUTO 32016G22KT 40SM 11/M02 A2980 RMK AO1 T01111021
MALTA       |KM75 061755Z AUTO 29014G19KT 40SM 13/05 A2982 RMK AO1 T01330050
EKALAKA     |K97M 061755Z AUTO 30008KT 10SM 13/11 A2973 RMK AO1 T01280111
LAUREL      |K6S8 061755Z AUTO 00000KT 40SM 11/01 A2989 RMK AO1 T01060006
SCOBEY      |K9S2 061755Z AUTO 32012G17KT 40SM 12/03 A2977 RMK AO1 T01170033
TWIN BRIDGES|K7S1 061755Z AUTO 34010G16KT 40SM 11/M03 A2989 RMK AO1 T01111032




USA.gov is the U.S. government's official web portal to all federal, state and local government web resources and services.